Time;durP1;ratioP1;P1;durP2;ratioP2;P2;SDS_P1;SDS_P2;PMS_P1;PMS_P2;Temp;Humidity;BMP_temperature;BMP_pressure;BME280_temperature;BME280_humidity;BME280_pressure;Samples;Min_cycle;Max_cycle;Signal;HPM_P1;HPM_P2
2023/04/29 00:00:13;;;;;;;;;;;13.00;99.90;;;;;;5013934;28;20296;-75
2023/04/29 00:02:40;;;;;;;;;;;13.00;99.90;;;;;;5033223;28;19933;-75
2023/04/29 00:05:09;;;;;;;;;;;13.00;99.90;;;;;;5022396;28;19932;-75
2023/04/29 00:07:37;;;;;;;;;;;13.00;99.90;;;;;;5031286;28;19959;-75
2023/04/29 00:10:05;;;;;;;;;;;13.00;99.90;;;;;;5015462;28;19932;-75
2023/04/29 00:12:32;;;;;;;;;;;13.00;99.90;;;;;;5023454;28;20019;-75
2023/04/29 00:14:59;;;;;;;;;;;13.00;99.90;;;;;;5040151;28;20015;-75
2023/04/29 00:17:26;;;;;;;;;;;13.00;99.90;;;;;;5041498;28;19929;-75
2023/04/29 00:19:54;;;;;;;;;;;13.00;99.90;;;;;;5043525;28;19925;-75
2023/04/29 00:22:22;;;;;;;;;;;13.00;99.90;;;;;;5044785;28;19925;-75
2023/04/29 00:24:50;;;;;;;;;;;13.00;99.90;;;;;;5040595;28;20313;-75
2023/04/29 00:27:17;;;;;;;;;;;13.00;99.90;;;;;;5024734;28;19933;-75
2023/04/29 00:29:44;;;;;;;;;;;13.00;99.90;;;;;;5041750;28;19925;-75
2023/04/29 00:32:11;;;;;;;;;;;13.00;99.90;;;;;;5042071;28;20493;-75
2023/04/29 00:34:37;;;;;;;;;;;13.00;99.90;;;;;;5025804;28;21787;-75
2023/04/29 00:37:07;;;;;;;;;;;12.90;99.90;;;;;;5027675;28;20396;-75
2023/04/29 00:39:35;;;;;;;;;;;12.90;99.90;;;;;;5042862;28;19971;-75
2023/04/29 00:42:03;;;;;;;;;;;12.90;99.90;;;;;;5046785;28;19925;-75
2023/04/29 00:44:30;;;;;;;;;;;12.90;99.90;;;;;;5018300;28;20129;-75
2023/04/29 00:46:59;;;;;;;;;;;12.90;99.90;;;;;;5018154;28;19932;-75
2023/04/29 00:49:27;;;;;;;;;;;12.90;99.90;;;;;;5035617;28;19935;-75
2023/04/29 00:51:56;;;;;;;;;;;12.90;99.90;;;;;;5022317;28;19924;-75
2023/04/29 00:54:23;;;;;;;;;;;12.90;99.90;;;;;;5020862;28;19925;-75
2023/04/29 00:56:51;;;;;;;;;;;12.90;99.90;;;;;;5025901;28;19933;-75
2023/04/29 00:59:19;;;;;;;;;;;12.90;99.90;;;;;;5031654;28;19975;-75
2023/04/29 01:01:46;;;;;;;;;;;12.90;99.90;;;;;;5040441;28;20391;-76
2023/04/29 01:04:14;;;;;;;;;;;12.90;99.90;;;;;;5022109;28;20039;-75
2023/04/29 01:06:49;;;;;;;;;;;12.90;99.90;;;;;;5025949;28;19975;-75
2023/04/29 01:09:26;;;;;;;;;;;12.90;99.90;;;;;;5016738;28;19940;-75
2023/04/29 01:11:57;;;;;;;;;;;12.90;99.90;;;;;;5021913;28;20390;-75
2023/04/29 01:14:26;;;;;;;;;;;12.90;99.90;;;;;;5036804;28;19925;-75
2023/04/29 01:16:56;;;;;;;;;;;12.90;99.90;;;;;;5040004;28;20347;-75
2023/04/29 01:19:33;;;;;;;;;;;12.90;99.90;;;;;;5026120;28;19971;-75
2023/04/29 01:22:00;;;;;;;;;;;12.90;99.90;;;;;;5025318;28;19970;-75
2023/04/29 01:24:29;;;;;;;;;;;12.80;99.90;;;;;;5043423;28;19924;-75
2023/04/29 01:26:57;;;;;;;;;;;12.80;99.90;;;;;;5037396;28;19932;-75
2023/04/29 01:29:48;;;;;;;;;;;12.80;99.90;;;;;;5020942;28;19932;-75
2023/04/29 01:32:17;;;;;;;;;;;12.80;99.90;;;;;;5030099;28;19925;-75
2023/04/29 01:34:48;;;;;;;;;;;12.80;99.90;;;;;;5037960;28;19939;-75
2023/04/29 01:37:18;;;;;;;;;;;12.80;99.90;;;;;;5022585;28;19924;-74
2023/04/29 01:39:58;;;;;;;;;;;12.80;99.90;;;;;;5026535;28;19925;-74
2023/04/29 01:42:30;;;;;;;;;;;12.80;99.90;;;;;;5026517;28;20369;-75
2023/04/29 01:44:59;;;;;;;;;;;12.70;99.90;;;;;;5020840;28;19933;-75
2023/04/29 01:47:27;;;;;;;;;;;12.70;99.90;;;;;;5017118;28;19929;-75
2023/04/29 01:49:54;;;;;;;;;;;12.70;99.90;;;;;;5022943;28;19925;-75
2023/04/29 01:52:22;;;;;;;;;;;12.70;99.90;;;;;;5018722;28;20074;-75
2023/04/29 01:54:58;;;;;;;;;;;12.70;99.90;;;;;;5031833;28;20464;-75
2023/04/29 01:57:30;;;;;;;;;;;12.70;99.90;;;;;;5019132;28;19935;-75
2023/04/29 02:00:23;;;;;;;;;;;12.70;99.90;;;;;;5006572;28;19933;-75
2023/04/29 02:02:53;;;;;;;;;;;12.70;99.90;;;;;;5020227;28;20299;-75
2023/04/29 02:05:39;;;;;;;;;;;12.70;99.90;;;;;;5035944;28;20298;-75
2023/04/29 02:08:06;;;;;;;;;;;12.70;99.90;;;;;;5020717;28;19936;-74
2023/04/29 02:10:39;;;;;;;;;;;12.70;99.90;;;;;;5016186;28;20020;-74
2023/04/29 02:13:32;;;;;;;;;;;12.60;99.90;;;;;;5032000;28;19925;-75
2023/04/29 02:16:06;;;;;;;;;;;12.60;99.90;;;;;;5039623;28;19925;-75
2023/04/29 02:18:34;;;;;;;;;;;12.60;99.90;;;;;;5033576;28;20452;-75
2023/04/29 02:21:01;;;;;;;;;;;12.60;99.90;;;;;;5020096;28;20452;-75
2023/04/29 02:23:30;;;;;;;;;;;12.60;99.90;;;;;;5019207;28;19932;-75
2023/04/29 02:25:58;;;;;;;;;;;12.60;99.90;;;;;;5015394;28;19928;-75
2023/04/29 02:28:25;;;;;;;;;;;12.60;99.90;;;;;;5016867;28;19990;-75
2023/04/29 02:30:51;;;;;;;;;;;12.60;99.90;;;;;;5036526;28;19925;-75
2023/04/29 02:33:19;;;;;;;;;;;12.60;99.90;;;;;;5019941;28;19974;-75
2023/04/29 02:35:49;;;;;;;;;;;12.50;99.90;;;;;;5021495;28;20027;-75
2023/04/29 02:38:16;;;;;;;;;;;12.50;99.90;;;;;;5019670;28;19924;-75
2023/04/29 02:40:45;;;;;;;;;;;12.50;99.90;;;;;;5039082;28;20366;-75
2023/04/29 02:43:13;;;;;;;;;;;12.50;99.90;;;;;;5030862;28;19924;-75
2023/04/29 02:45:40;;;;;;;;;;;12.50;99.90;;;;;;5031559;28;19932;-75
2023/04/29 02:48:07;;;;;;;;;;;12.50;99.90;;;;;;5021373;28;20441;-75
2023/04/29 02:50:34;;;;;;;;;;;12.50;99.90;;;;;;5039706;28;20467;-75
2023/04/29 02:53:01;;;;;;;;;;;12.50;99.90;;;;;;5043263;28;19925;-75
2023/04/29 02:55:28;;;;;;;;;;;12.50;99.90;;;;;;5027723;28;19940;-75
2023/04/29 02:58:00;;;;;;;;;;;12.50;99.90;;;;;;5026699;28;19937;-75
2023/04/29 03:00:28;;;;;;;;;;;12.50;99.90;;;;;;5028891;28;19933;-75
2023/04/29 03:02:55;;;;;;;;;;;12.40;99.90;;;;;;5042623;28;19931;-75
2023/04/29 03:05:21;;;;;;;;;;;12.40;99.90;;;;;;5030234;28;19970;-75
2023/04/29 03:07:51;;;;;;;;;;;12.40;99.90;;;;;;5020888;28;20015;-75
2023/04/29 03:10:18;;;;;;;;;;;12.40;99.90;;;;;;5025887;28;20321;-75
2023/04/29 03:12:46;;;;;;;;;;;12.40;99.90;;;;;;5029572;28;19940;-75
2023/04/29 03:15:14;;;;;;;;;;;12.40;99.90;;;;;;5039018;28;20030;-75
2023/04/29 03:17:45;;;;;;;;;;;12.40;99.90;;;;;;5027598;28;20402;-74
2023/04/29 03:20:13;;;;;;;;;;;12.40;99.90;;;;;;5026119;28;19933;-75
2023/04/29 03:22:40;;;;;;;;;;;12.40;99.90;;;;;;5043492;28;19943;-75
2023/04/29 03:25:09;;;;;;;;;;;12.40;99.90;;;;;;5028646;28;19929;-75
2023/04/29 03:27:37;;;;;;;;;;;12.40;99.90;;;;;;5029238;28;20410;-74
2023/04/29 03:30:04;;;;;;;;;;;12.30;99.90;;;;;;5030331;28;19990;-74
2023/04/29 03:32:32;;;;;;;;;;;12.30;99.90;;;;;;5025023;28;19924;-75
2023/04/29 03:35:02;;;;;;;;;;;12.30;99.90;;;;;;5044559;28;19979;-75
2023/04/29 03:37:37;;;;;;;;;;;12.30;99.90;;;;;;5033978;28;19932;-75
2023/04/29 03:40:17;;;;;;;;;;;12.30;99.90;;;;;;5033511;28;19980;-75
2023/04/29 03:42:44;;;;;;;;;;;12.30;99.90;;;;;;5026968;28;19955;-75
2023/04/29 03:45:13;;;;;;;;;;;12.30;99.90;;;;;;5029337;28;19925;-75
2023/04/29 03:47:40;;;;;;;;;;;12.30;99.90;;;;;;5031456;28;20322;-75
2023/04/29 03:50:09;;;;;;;;;;;12.30;99.90;;;;;;5046865;28;19933;-75
2023/04/29 03:52:36;;;;;;;;;;;12.20;99.90;;;;;;5042363;28;19933;-75
2023/04/29 03:55:08;;;;;;;;;;;12.20;99.90;;;;;;5027030;28;20358;-74
2023/04/29 03:57:36;;;;;;;;;;;12.20;99.90;;;;;;5025579;28;20567;-75
2023/04/29 04:00:03;;;;;;;;;;;12.20;99.90;;;;;;5027502;28;19931;-75
2023/04/29 04:02:40;;;;;;;;;;;12.20;99.90;;;;;;5040227;28;20302;-75
2023/04/29 04:05:10;;;;;;;;;;;12.20;99.90;;;;;;5026206;28;19931;-75
2023/04/29 04:07:38;;;;;;;;;;;12.20;99.90;;;;;;5022447;28;19986;-75
2023/04/29 04:10:40;;;;;;;;;;;12.20;99.90;;;;;;4938483;28;19926;-75
2023/04/29 04:13:40;;;;;;;;;;;12.20;99.90;;;;;;4991319;28;21689;-75
2023/04/29 04:16:07;;;;;;;;;;;12.20;99.90;;;;;;5019664;28;19929;-75
2023/04/29 04:18:34;;;;;;;;;;;12.20;99.90;;;;;;5023313;28;19956;-75
2023/04/29 04:21:06;;;;;;;;;;;12.10;99.90;;;;;;5029479;28;19928;-75
2023/04/29 04:23:33;;;;;;;;;;;12.10;99.90;;;;;;5030282;28;20340;-75
2023/04/29 04:26:02;;;;;;;;;;;12.10;99.90;;;;;;5031920;28;19929;-75
2023/04/29 04:28:49;;;;;;;;;;;12.10;99.90;;;;;;5040155;28;19925;-75
2023/04/29 04:31:23;;;;;;;;;;;12.10;99.90;;;;;;5028380;28;19931;-75
2023/04/29 04:33:50;;;;;;;;;;;12.10;99.90;;;;;;5026498;28;20020;-75
2023/04/29 04:36:19;;;;;;;;;;;12.10;99.90;;;;;;5025323;28;19933;-75
2023/04/29 04:38:46;;;;;;;;;;;12.10;99.90;;;;;;5044868;28;19936;-75
2023/04/29 04:41:12;;;;;;;;;;;12.10;99.90;;;;;;5027356;28;19933;-75
2023/04/29 04:43:44;;;;;;;;;;;12.10;99.90;;;;;;5025111;28;19925;-75
2023/04/29 04:46:20;;;;;;;;;;;12.10;99.90;;;;;;5021494;28;20466;-76
2023/04/29 04:49:01;;;;;;;;;;;12.10;99.90;;;;;;5036935;28;19933;-75
2023/04/29 04:51:30;;;;;;;;;;;12.10;99.90;;;;;;5028611;28;19928;-75
2023/04/29 04:53:57;;;;;;;;;;;12.00;99.90;;;;;;5026458;28;19929;-75
2023/04/29 04:56:30;;;;;;;;;;;12.00;99.90;;;;;;5026568;28;19928;-76
2023/04/29 04:58:57;;;;;;;;;;;12.00;99.90;;;;;;5041478;28;19924;-75
2023/04/29 05:01:24;;;;;;;;;;;12.00;99.90;;;;;;5021091;28;20437;-75
2023/04/29 05:03:52;;;;;;;;;;;12.00;99.90;;;;;;5024842;28;19968;-76
2023/04/29 05:06:19;;;;;;;;;;;12.00;99.90;;;;;;5027470;28;19931;-75
2023/04/29 05:08:48;;;;;;;;;;;12.00;99.90;;;;;;5027883;28;19933;-75
2023/04/29 05:11:17;;;;;;;;;;;12.00;99.90;;;;;;5023772;28;19959;-75
2023/04/29 05:13:45;;;;;;;;;;;12.00;99.90;;;;;;5045956;28;19936;-75
2023/04/29 05:16:13;;;;;;;;;;;12.00;99.90;;;;;;5026319;28;19929;-75
2023/04/29 05:18:45;;;;;;;;;;;12.00;99.90;;;;;;5019409;28;19925;-76
2023/04/29 05:21:12;;;;;;;;;;;12.00;99.90;;;;;;5032713;28;19925;-75
2023/04/29 05:23:42;;;;;;;;;;;12.00;99.90;;;;;;5019754;28;19924;-75
2023/04/29 05:26:10;;;;;;;;;;;11.90;99.90;;;;;;5033889;28;19979;-75
2023/04/29 05:28:37;;;;;;;;;;;11.90;99.90;;;;;;5018756;28;19935;-75
2023/04/29 05:31:06;;;;;;;;;;;11.90;99.90;;;;;;5022919;28;19970;-75
2023/04/29 05:33:33;;;;;;;;;;;11.90;99.90;;;;;;5029613;28;19924;-75
2023/04/29 05:36:00;;;;;;;;;;;11.90;99.90;;;;;;5023391;28;20031;-75
2023/04/29 05:38:27;;;;;;;;;;;11.90;99.90;;;;;;5020733;28;19933;-74
2023/04/29 05:41:19;;;;;;;;;;;11.90;99.90;;;;;;5031729;28;20417;-75
2023/04/29 05:43:46;;;;;;;;;;;11.90;99.90;;;;;;5039749;28;19931;-76
2023/04/29 05:46:15;;;;;;;;;;;11.90;99.90;;;;;;5020552;28;19959;-75
2023/04/29 05:48:42;;;;;;;;;;;11.90;99.90;;;;;;5020154;28;20015;-76
2023/04/29 05:51:10;;;;;;;;;;;11.90;99.90;;;;;;5020737;28;19933;-75
2023/04/29 05:53:39;;;;;;;;;;;11.90;99.90;;;;;;5016154;28;19925;-75
2023/04/29 05:56:07;;;;;;;;;;;11.90;99.90;;;;;;5017471;28;19957;-75
2023/04/29 05:58:36;;;;;;;;;;;11.90;99.90;;;;;;5020343;28;20013;-76
2023/04/29 06:01:03;;;;;;;;;;;11.90;99.90;;;;;;5022073;28;19929;-74
2023/04/29 06:03:31;;;;;;;;;;;11.90;99.90;;;;;;5015817;28;20392;-74
2023/04/29 06:06:18;;;;;;;;;;;11.90;99.90;;;;;;5035310;28;20027;-75
2023/04/29 06:09:01;;;;;;;;;;;11.90;99.90;;;;;;5037260;28;20039;-75
2023/04/29 06:11:30;;;;;;;;;;;11.90;99.90;;;;;;5025249;28;19940;-75
2023/04/29 06:13:58;;;;;;;;;;;12.00;99.90;;;;;;5014144;28;19933;-76
2023/04/29 06:16:25;;;;;;;;;;;12.10;99.90;;;;;;5020974;28;20331;-75
2023/04/29 06:18:54;;;;;;;;;;;12.00;99.90;;;;;;5041108;28;19925;-75
2023/04/29 06:21:20;;;;;;;;;;;12.10;99.90;;;;;;5022987;28;19932;-75
2023/04/29 06:23:47;;;;;;;;;;;12.00;99.90;;;;;;5022581;28;19929;-75
2023/04/29 06:26:17;;;;;;;;;;;12.00;99.90;;;;;;5026504;28;20088;-75
2023/04/29 06:28:45;;;;;;;;;;;12.00;99.90;;;;;;5041829;28;19932;-75
2023/04/29 06:31:13;;;;;;;;;;;12.00;99.90;;;;;;5019811;28;19991;-75
2023/04/29 06:33:42;;;;;;;;;;;12.00;99.90;;;;;;5019942;28;20399;-75
2023/04/29 06:36:09;;;;;;;;;;;12.00;99.90;;;;;;5028022;28;19971;-75
2023/04/29 06:38:54;;;;;;;;;;;12.00;99.90;;;;;;5039125;28;19951;-75
2023/04/29 06:41:27;;;;;;;;;;;12.00;99.90;;;;;;5038162;28;20470;-75
2023/04/29 06:44:18;;;;;;;;;;;12.00;99.90;;;;;;5006376;28;20306;-75
2023/04/29 06:46:58;;;;;;;;;;;12.00;99.90;;;;;;5021481;28;20099;-75
2023/04/29 06:49:46;;;;;;;;;;;12.00;99.90;;;;;;5022127;28;20024;-75
2023/04/29 06:52:12;;;;;;;;;;;12.00;99.90;;;;;;5034196;28;19925;-75
2023/04/29 06:54:39;;;;;;;;;;;12.00;99.90;;;;;;5013865;28;19940;-75
2023/04/29 06:57:06;;;;;;;;;;;12.00;99.90;;;;;;5013609;28;20350;-75
2023/04/29 06:59:33;;;;;;;;;;;12.00;99.90;;;;;;5019728;28;19947;-75
2023/04/29 07:02:01;;;;;;;;;;;12.00;99.90;;;;;;5036598;28;20022;-75
2023/04/29 07:04:29;;;;;;;;;;;12.00;99.90;;;;;;5022299;28;20524;-75
2023/04/29 07:06:57;;;;;;;;;;;12.10;99.90;;;;;;5018642;28;19925;-75
2023/04/29 07:09:26;;;;;;;;;;;12.10;99.90;;;;;;5036492;28;19933;-75
2023/04/29 07:11:53;;;;;;;;;;;12.10;99.90;;;;;;5037051;28;19925;-75
2023/04/29 07:14:21;;;;;;;;;;;12.10;99.90;;;;;;5016742;28;19986;-75
2023/04/29 07:16:48;;;;;;;;;;;12.10;99.90;;;;;;5024638;28;19933;-75
2023/04/29 07:19:16;;;;;;;;;;;12.20;99.90;;;;;;5021331;28;19932;-75
2023/04/29 07:21:43;;;;;;;;;;;12.20;99.90;;;;;;5016512;28;19983;-76
2023/04/29 07:24:10;;;;;;;;;;;12.20;99.90;;;;;;5017232;28;19925;-75
2023/04/29 07:26:36;;;;;;;;;;;12.20;99.90;;;;;;5036106;28;19933;-75
2023/04/29 07:29:03;;;;;;;;;;;12.20;99.90;;;;;;5035045;28;19929;-75
2023/04/29 07:31:30;;;;;;;;;;;12.20;99.90;;;;;;5017685;28;20011;-75
2023/04/29 07:33:57;;;;;;;;;;;12.20;99.90;;;;;;5018955;28;19933;-75
2023/04/29 07:36:27;;;;;;;;;;;12.30;99.90;;;;;;5020014;28;19928;-75
2023/04/29 07:38:54;;;;;;;;;;;12.30;99.90;;;;;;5021456;28;19933;-75
2023/04/29 07:41:21;;;;;;;;;;;12.30;99.90;;;;;;5019758;28;19932;-75
2023/04/29 07:43:48;;;;;;;;;;;12.30;99.90;;;;;;5021426;28;19932;-75
2023/04/29 07:46:17;;;;;;;;;;;12.30;99.90;;;;;;5028301;28;19929;-75
2023/04/29 07:48:44;;;;;;;;;;;12.30;99.90;;;;;;5032437;28;19932;-74
2023/04/29 07:51:12;;;;;;;;;;;12.30;99.90;;;;;;5019870;28;20468;-75
2023/04/29 07:53:40;;;;;;;;;;;12.30;99.90;;;;;;5039492;28;20015;-76
2023/04/29 07:56:08;;;;;;;;;;;12.30;99.90;;;;;;5029951;28;20016;-75
2023/04/29 07:58:35;;;;;;;;;;;12.30;99.90;;;;;;5015866;28;19986;-75
2023/04/29 08:01:05;;;;;;;;;;;12.40;99.90;;;;;;5019316;28;19956;-75
2023/04/29 08:03:32;;;;;;;;;;;12.40;99.90;;;;;;5035658;28;19936;-75
2023/04/29 08:06:01;;;;;;;;;;;12.40;99.90;;;;;;5023482;28;20008;-75
2023/04/29 08:08:27;;;;;;;;;;;12.40;99.90;;;;;;5033275;28;19925;-75
2023/04/29 08:10:56;;;;;;;;;;;12.50;99.90;;;;;;5024095;28;19944;-75
2023/04/29 08:13:23;;;;;;;;;;;12.50;99.90;;;;;;5037987;28;19956;-75
2023/04/29 08:15:50;;;;;;;;;;;12.60;99.90;;;;;;5024459;28;19932;-75
2023/04/29 08:18:17;;;;;;;;;;;12.60;99.90;;;;;;5025932;28;19924;-74
2023/04/29 08:20:43;;;;;;;;;;;12.50;99.90;;;;;;5040427;28;19924;-75
2023/04/29 08:23:10;;;;;;;;;;;12.50;99.90;;;;;;5041784;28;19944;-75
2023/04/29 08:25:40;;;;;;;;;;;12.50;99.90;;;;;;5038146;28;19929;-75
2023/04/29 08:28:09;;;;;;;;;;;12.50;99.90;;;;;;5026011;28;20007;-75
2023/04/29 08:30:37;;;;;;;;;;;12.60;99.90;;;;;;5041911;28;20394;-75
2023/04/29 08:33:04;;;;;;;;;;;12.60;99.90;;;;;;5040469;28;19967;-74
2023/04/29 08:35:31;;;;;;;;;;;12.60;99.90;;;;;;5038748;28;19948;-75
2023/04/29 08:37:58;;;;;;;;;;;12.50;99.90;;;;;;5044568;28;20023;-74
2023/04/29 08:40:25;;;;;;;;;;;12.60;99.90;;;;;;5028940;28;20395;-75
2023/04/29 08:42:53;;;;;;;;;;;12.60;99.90;;;;;;5040020;28;19925;-75
2023/04/29 08:45:23;;;;;;;;;;;12.60;99.90;;;;;;5043241;28;19928;-75
2023/04/29 08:47:51;;;;;;;;;;;12.60;99.90;;;;;;5038417;28;20477;-75
2023/04/29 08:50:18;;;;;;;;;;;12.60;99.90;;;;;;5037867;28;19933;-75
2023/04/29 08:52:45;;;;;;;;;;;12.60;99.90;;;;;;5040149;28;20465;-75
2023/04/29 08:55:11;;;;;;;;;;;12.60;99.90;;;;;;5041498;28;20410;-75
2023/04/29 08:57:39;;;;;;;;;;;12.70;99.90;;;;;;5039682;28;19960;-75
2023/04/29 09:00:07;;;;;;;;;;;12.70;99.90;;;;;;5042943;28;19925;-75
2023/04/29 09:02:41;;;;;;;;;;;12.70;99.90;;;;;;5040213;28;20337;-75
2023/04/29 09:05:10;;;;;;;;;;;12.70;99.90;;;;;;5041136;28;19924;-75
2023/04/29 09:07:37;;;;;;;;;;;12.70;99.90;;;;;;5025045;28;19944;-75
2023/04/29 09:10:04;;;;;;;;;;;12.70;99.90;;;;;;5039658;28;20346;-75
2023/04/29 09:12:31;;;;;;;;;;;12.80;99.90;;;;;;5042780;28;19928;-75
2023/04/29 09:14:58;;;;;;;;;;;12.80;99.90;;;;;;5043681;28;19940;-75
2023/04/29 09:17:39;;;;;;;;;;;12.70;99.90;;;;;;5023761;28;19925;-75
2023/04/29 09:20:25;;;;;;;;;;;12.80;99.90;;;;;;5040023;28;19970;-75
2023/04/29 09:22:53;;;;;;;;;;;12.80;99.90;;;;;;5027694;28;20022;-75
2023/04/29 09:25:20;;;;;;;;;;;12.80;99.90;;;;;;5043299;28;20737;-75
2023/04/29 09:27:47;;;;;;;;;;;12.80;99.90;;;;;;5039049;28;19986;-75
2023/04/29 09:30:15;;;;;;;;;;;12.80;99.90;;;;;;5040560;28;20390;-75
2023/04/29 09:32:44;;;;;;;;;;;12.80;99.90;;;;;;5040565;28;19961;-74
2023/04/29 09:35:21;;;;;;;;;;;12.90;99.90;;;;;;5040640;28;19932;-74
2023/04/29 09:37:48;;;;;;;;;;;12.90;99.90;;;;;;5040576;28;20398;-75
2023/04/29 09:40:29;;;;;;;;;;;12.90;99.90;;;;;;5041168;28;19947;-75
2023/04/29 09:42:56;;;;;;;;;;;12.90;99.90;;;;;;5044543;28;19925;-75
2023/04/29 09:45:41;;;;;;;;;;;12.90;99.90;;;;;;5021372;28;20465;-75
2023/04/29 09:48:09;;;;;;;;;;;12.90;99.90;;;;;;5042402;28;19928;-74
2023/04/29 09:50:37;;;;;;;;;;;12.90;99.90;;;;;;5035578;28;20018;-74
2023/04/29 09:53:04;;;;;;;;;;;12.90;99.90;;;;;;5043354;28;20560;-75
2023/04/29 09:55:31;;;;;;;;;;;12.90;99.90;;;;;;5020949;28;19925;-74
2023/04/29 09:57:59;;;;;;;;;;;12.90;99.90;;;;;;5026789;28;19929;-75
2023/04/29 10:00:28;;;;;;;;;;;12.90;99.90;;;;;;5035495;28;19933;-75
2023/04/29 10:02:56;;;;;;;;;;;13.00;99.90;;;;;;5040857;28;19925;-75
2023/04/29 10:05:27;;;;;;;;;;;13.00;99.90;;;;;;5040360;28;20021;-75
2023/04/29 10:07:55;;;;;;;;;;;13.00;99.90;;;;;;5038421;28;19925;-75
2023/04/29 10:10:23;;;;;;;;;;;13.00;99.90;;;;;;5038784;28;19933;-75
2023/04/29 10:12:52;;;;;;;;;;;13.00;99.90;;;;;;5038207;28;19978;-75
2023/04/29 10:15:22;;;;;;;;;;;13.00;99.90;;;;;;5041565;28;19925;-75
2023/04/29 10:17:52;;;;;;;;;;;13.00;99.90;;;;;;5040153;28;19924;-75
2023/04/29 10:20:22;;;;;;;;;;;13.00;99.90;;;;;;5034975;28;19932;-75
2023/04/29 10:22:51;;;;;;;;;;;13.10;99.90;;;;;;5020869;28;19925;-76
2023/04/29 10:25:18;;;;;;;;;;;13.10;99.90;;;;;;5035768;28;20008;-74
2023/04/29 10:27:46;;;;;;;;;;;13.10;99.90;;;;;;5036159;28;19929;-74
2023/04/29 10:30:13;;;;;;;;;;;13.10;99.90;;;;;;5040653;28;20015;-75
2023/04/29 10:32:41;;;;;;;;;;;13.10;99.90;;;;;;5039967;28;20043;-74
2023/04/29 10:35:09;;;;;;;;;;;13.20;99.90;;;;;;5042420;28;20355;-75
2023/04/29 10:37:36;;;;;;;;;;;13.20;99.90;;;;;;5036229;28;20748;-75
2023/04/29 10:40:10;;;;;;;;;;;13.10;99.90;;;;;;5041191;28;20011;-75
2023/04/29 10:42:42;;;;;;;;;;;13.20;99.90;;;;;;5038254;28;19928;-75
2023/04/29 10:45:19;;;;;;;;;;;13.20;99.90;;;;;;5019023;28;19929;-75
2023/04/29 10:48:05;;;;;;;;;;;13.20;99.90;;;;;;5044121;28;19971;-73
2023/04/29 10:50:32;;;;;;;;;;;13.30;99.90;;;;;;5041276;28;19925;-74
2023/04/29 10:53:01;;;;;;;;;;;13.30;99.90;;;;;;5037505;28;19931;-75
2023/04/29 10:55:30;;;;;;;;;;;13.30;99.90;;;;;;5024500;28;20039;-75
2023/04/29 10:57:57;;;;;;;;;;;13.20;99.90;;;;;;5038602;28;19957;-75
2023/04/29 11:00:26;;;;;;;;;;;13.30;99.90;;;;;;5035588;28;20409;-74
2023/04/29 11:02:53;;;;;;;;;;;13.30;99.90;;;;;;5024187;28;19931;-76
2023/04/29 11:05:30;;;;;;;;;;;13.30;99.90;;;;;;5037316;28;19933;-76
2023/04/29 11:08:09;;;;;;;;;;;13.40;99.90;;;;;;5035568;28;20322;-75
2023/04/29 11:10:38;;;;;;;;;;;13.40;99.90;;;;;;5022955;28;19933;-75
2023/04/29 11:13:24;;;;;;;;;;;13.50;99.90;;;;;;5041626;28;19925;-76
2023/04/29 11:15:51;;;;;;;;;;;13.60;99.90;;;;;;5024054;28;19987;-75
2023/04/29 11:18:18;;;;;;;;;;;13.60;99.90;;;;;;5040041;28;19937;-76
2023/04/29 11:21:03;;;;;;;;;;;13.60;99.90;;;;;;5039810;28;19924;-75
2023/04/29 11:23:30;;;;;;;;;;;13.70;99.90;;;;;;5023607;28;19972;-77
2023/04/29 11:25:58;;;;;;;;;;;13.70;99.90;;;;;;5042098;28;19931;-76
2023/04/29 11:28:27;;;;;;;;;;;13.70;99.90;;;;;;5021062;28;19925;-75
2023/04/29 11:30:54;;;;;;;;;;;13.70;99.90;;;;;;5042577;28;19971;-76
2023/04/29 11:33:21;;;;;;;;;;;13.70;99.90;;;;;;5026241;28;19925;-76
2023/04/29 11:35:48;;;;;;;;;;;13.70;99.90;;;;;;5043025;28;19933;-75
2023/04/29 11:38:14;;;;;;;;;;;13.70;99.90;;;;;;5047080;28;19964;-76
2023/04/29 11:40:41;;;;;;;;;;;13.70;99.90;;;;;;5023029;28;20036;-75
2023/04/29 11:43:19;;;;;;;;;;;13.80;99.90;;;;;;5043648;28;20398;-75
2023/04/29 11:45:46;;;;;;;;;;;13.80;99.90;;;;;;5041849;28;19924;-76
2023/04/29 11:48:17;;;;;;;;;;;13.80;99.90;;;;;;5046025;28;19964;-76
2023/04/29 11:50:45;;;;;;;;;;;13.80;99.90;;;;;;5044680;28;19970;-76
2023/04/29 11:53:11;;;;;;;;;;;13.80;99.90;;;;;;5027413;28;20018;-76
2023/04/29 11:55:39;;;;;;;;;;;13.80;99.90;;;;;;5042672;28;19964;-76
2023/04/29 11:58:06;;;;;;;;;;;13.80;99.90;;;;;;5044711;28;19951;-75
2023/04/29 12:00:34;;;;;;;;;;;13.80;99.90;;;;;;5042594;28;20193;-76
2023/04/29 12:03:01;;;;;;;;;;;13.80;99.90;;;;;;5040991;28;20010;-76
2023/04/29 12:05:28;;;;;;;;;;;13.80;99.90;;;;;;5038918;28;19932;-75
2023/04/29 12:07:55;;;;;;;;;;;13.80;99.90;;;;;;5042870;28;19925;-76
2023/04/29 12:10:22;;;;;;;;;;;13.90;99.90;;;;;;5038910;28;20014;-76
2023/04/29 12:12:49;;;;;;;;;;;13.90;99.90;;;;;;5037975;28;20392;-76
2023/04/29 12:15:16;;;;;;;;;;;13.90;99.90;;;;;;5046679;28;19924;-78
2023/04/29 12:17:46;;;;;;;;;;;14.00;99.90;;;;;;5038180;28;19933;-77
2023/04/29 12:20:13;;;;;;;;;;;14.00;99.90;;;;;;5042045;28;20331;-78
2023/04/29 12:22:42;;;;;;;;;;;14.10;99.90;;;;;;5042639;28;20367;-77
2023/04/29 12:25:10;;;;;;;;;;;14.10;99.90;;;;;;5043124;28;20475;-77
2023/04/29 12:27:40;;;;;;;;;;;14.10;99.90;;;;;;5035169;28;19956;-77
2023/04/29 12:30:08;;;;;;;;;;;14.10;99.90;;;;;;5036041;28;19925;-77
2023/04/29 12:32:35;;;;;;;;;;;14.10;99.90;;;;;;5041521;28;19978;-77
2023/04/29 12:35:04;;;;;;;;;;;14.10;99.90;;;;;;5039931;28;19964;-77
2023/04/29 12:37:30;;;;;;;;;;;14.20;99.90;;;;;;5027995;28;19996;-77
2023/04/29 12:39:57;;;;;;;;;;;14.30;99.90;;;;;;5039887;28;19948;-76
2023/04/29 12:42:24;;;;;;;;;;;14.40;99.90;;;;;;5041464;28;20425;-77
2023/04/29 12:44:51;;;;;;;;;;;14.50;99.90;;;;;;5043672;28;19932;-77
2023/04/29 12:47:20;;;;;;;;;;;14.50;99.90;;;;;;5041349;28;19928;-77
2023/04/29 12:49:48;;;;;;;;;;;14.40;99.90;;;;;;5043877;28;19929;-78
2023/04/29 12:52:17;;;;;;;;;;;14.50;99.90;;;;;;5044006;28;20367;-77
2023/04/29 12:54:44;;;;;;;;;;;14.50;99.90;;;;;;5023720;28;19956;-76
2023/04/29 12:57:11;;;;;;;;;;;14.50;99.90;;;;;;5038666;28;20342;-77
2023/04/29 12:59:38;;;;;;;;;;;14.60;99.90;;;;;;5039538;28;19929;-77
2023/04/29 13:02:05;;;;;;;;;;;14.60;99.90;;;;;;5047002;28;20093;-76
2023/04/29 13:04:32;;;;;;;;;;;;;;;;;;5026487;28;19926;-77
2023/04/29 13:07:00;;;;;;;;;;;14.60;99.90;;;;;;5039052;28;19978;-77
2023/04/29 13:09:29;;;;;;;;;;;14.70;99.90;;;;;;5012689;28;21621;-77
2023/04/29 13:11:56;;;;;;;;;;;14.70;99.90;;;;;;5025016;28;19925;-77
2023/04/29 13:14:23;;;;;;;;;;;14.70;99.90;;;;;;5036034;28;19929;-76
2023/04/29 13:16:50;;;;;;;;;;;14.70;99.90;;;;;;5015018;28;19924;-77
2023/04/29 13:19:17;;;;;;;;;;;14.80;99.90;;;;;;5038491;28;19937;-78
2023/04/29 13:21:45;;;;;;;;;;;14.80;99.90;;;;;;5020982;28;20197;-77
2023/04/29 13:24:12;;;;;;;;;;;14.80;99.90;;;;;;5019890;28;19982;-77
2023/04/29 13:26:40;;;;;;;;;;;14.80;99.90;;;;;;5043141;28;19960;-77
2023/04/29 13:29:07;;;;;;;;;;;14.90;99.90;;;;;;5039269;28;19924;-77
2023/04/29 13:31:34;;;;;;;;;;;14.80;99.90;;;;;;5046306;28;19933;-76
2023/04/29 13:34:01;;;;;;;;;;;15.10;99.90;;;;;;5041539;28;19952;-77
2023/04/29 13:36:29;;;;;;;;;;;14.90;99.90;;;;;;5042500;28;19946;-76
2023/04/29 13:38:56;;;;;;;;;;;15.00;99.90;;;;;;5024780;28;19924;-76
2023/04/29 13:41:22;;;;;;;;;;;15.00;99.90;;;;;;5036878;28;19952;-77
2023/04/29 13:43:53;;;;;;;;;;;15.00;99.90;;;;;;5035762;28;20007;-78
2023/04/29 13:46:20;;;;;;;;;;;;;;;;;;5020136;28;20018;-78
2023/04/29 13:48:47;;;;;;;;;;;15.20;99.90;;;;;;5039273;28;19925;-78
2023/04/29 13:51:14;;;;;;;;;;;15.10;99.90;;;;;;5042865;28;20077;-76
2023/04/29 13:53:43;;;;;;;;;;;;;;;;;;5035557;28;19931;-76
2023/04/29 13:56:10;;;;;;;;;;;15.20;99.90;;;;;;5024666;28;20019;-77
2023/04/29 13:58:37;;;;;;;;;;;15.30;99.90;;;;;;5033059;28;21160;-74
2023/04/29 14:01:05;;;;;;;;;;;15.30;99.90;;;;;;5021506;28;19924;-75
2023/04/29 14:03:32;;;;;;;;;;;15.40;99.90;;;;;;5031459;28;19928;-75
2023/04/29 14:05:59;;;;;;;;;;;15.40;99.90;;;;;;5037165;28;19931;-76
2023/04/29 14:08:26;;;;;;;;;;;15.40;99.90;;;;;;5040456;28;19947;-77
2023/04/29 14:10:53;;;;;;;;;;;15.50;99.90;;;;;;5039122;28;20412;-77
2023/04/29 14:13:20;;;;;;;;;;;15.50;99.90;;;;;;5047143;28;19925;-78
2023/04/29 14:15:47;;;;;;;;;;;15.50;99.90;;;;;;5023678;28;19924;-76
2023/04/29 14:18:15;;;;;;;;;;;15.50;99.90;;;;;;5033641;28;19929;-77
2023/04/29 14:20:42;;;;;;;;;;;15.60;99.90;;;;;;5021198;28;20453;-77
2023/04/29 14:23:08;;;;;;;;;;;15.60;99.90;;;;;;5039964;28;20018;-77
2023/04/29 14:25:36;;;;;;;;;;;15.60;99.90;;;;;;5020042;28;19932;-77
2023/04/29 14:28:03;;;;;;;;;;;15.60;99.90;;;;;;5036490;28;19944;-77
2023/04/29 14:30:30;;;;;;;;;;;15.60;99.90;;;;;;5044639;28;19925;-76